sensor_id;sensor_type;location;lat;lon;timestamp;pressure;altitude;pressure_sealevel;temperature;humidity
63347;BME280;49472;49.880;8.650;2023-02-01T00:02:04;100651.78;;;11.14;nan
63347;BME280;49472;49.880;8.650;2023-02-01T00:04:30;100643.50;;;11.49;nan
63347;BME280;49472;49.880;8.650;2023-02-01T00:06:55;100638.28;;;11.12;nan
63347;BME280;49472;49.880;8.650;2023-02-01T00:09:21;100634.06;;;11.24;nan
63347;BME280;49472;49.880;8.650;2023-02-01T00:11:46;100636.34;;;11.28;nan
63347;BME280;49472;49.880;8.650;2023-02-01T00:14:12;100640.94;;;11.23;nan
63347;BME280;49472;49.880;8.650;2023-02-01T00:16:37;100656.91;;;11.14;nan
63347;BME280;49472;49.880;8.650;2023-02-01T00:19:05;100631.34;;;11.52;nan
63347;BME280;49472;49.880;8.650;2023-02-01T00:21:31;100635.09;;;11.72;nan
63347;BME280;49472;49.880;8.650;2023-02-01T00:23:57;100630.50;;;11.52;nan
63347;BME280;49472;49.880;8.650;2023-02-01T00:28:57;100628.78;;;11.65;nan
63347;BME280;49472;49.880;8.650;2023-02-01T00:31:23;100639.63;;;11.43;nan
63347;BME280;49472;49.880;8.650;2023-02-01T00:33:48;100643.22;;;11.54;nan
63347;BME280;49472;49.880;8.650;2023-02-01T00:36:14;100643.81;;;11.70;nan
63347;BME280;49472;49.880;8.650;2023-02-01T00:38:40;100645.78;;;11.54;nan
63347;BME280;49472;49.880;8.650;2023-02-01T00:41:10;100634.41;;;11.58;nan
63347;BME280;49472;49.880;8.650;2023-02-01T00:43:36;100625.56;;;11.87;nan
63347;BME280;49472;49.880;8.650;2023-02-01T00:46:02;100630.72;;;11.36;nan
63347;BME280;49472;49.880;8.650;2023-02-01T00:48:27;100632.00;;;11.93;nan
63347;BME280;49472;49.880;8.650;2023-02-01T00:50:53;100623.00;;;11.74;nan
63347;BME280;49472;49.880;8.650;2023-02-01T00:53:18;100620.06;;;11.68;nan
63347;BME280;49472;49.880;8.650;2023-02-01T00:55:47;100617.69;;;11.65;nan
63347;BME280;49472;49.880;8.650;2023-02-01T00:58:13;100613.09;;;11.32;nan
63347;BME280;49472;49.880;8.650;2023-02-01T01:00:38;100602.31;;;11.65;nan
63347;BME280;49472;49.880;8.650;2023-02-01T01:03:03;100605.50;;;11.68;nan
63347;BME280;49472;49.880;8.650;2023-02-01T01:05:46;100605.31;;;11.46;nan
63347;BME280;49472;49.880;8.650;2023-02-01T01:08:12;100615.13;;;11.52;nan
63347;BME280;49472;49.880;8.650;2023-02-01T01:10:38;100614.22;;;11.53;nan
63347;BME280;49472;49.880;8.650;2023-02-01T01:13:03;100609.63;;;11.45;nan
63347;BME280;49472;49.880;8.650;2023-02-01T01:15:28;100607.47;;;11.26;nan
63347;BME280;49472;49.880;8.650;2023-02-01T01:17:56;100600.72;;;11.25;nan
63347;BME280;49472;49.880;8.650;2023-02-01T01:20:22;100600.41;;;11.30;nan
63347;BME280;49472;49.880;8.650;2023-02-01T01:22:48;100601.44;;;11.27;nan
63347;BME280;49472;49.880;8.650;2023-02-01T01:25:14;100612.78;;;11.49;nan
63347;BME280;49472;49.880;8.650;2023-02-01T01:27:39;100609.94;;;11.41;nan
63347;BME280;49472;49.880;8.650;2023-02-01T01:30:05;100606.44;;;11.42;nan
63347;BME280;49472;49.880;8.650;2023-02-01T01:32:30;100605.69;;;11.91;nan
63347;BME280;49472;49.880;8.650;2023-02-01T01:34:56;100608.09;;;11.56;nan
63347;BME280;49472;49.880;8.650;2023-02-01T01:37:21;100614.91;;;11.93;nan
63347;BME280;49472;49.880;8.650;2023-02-01T01:39:46;100607.69;;;12.11;nan
63347;BME280;49472;49.880;8.650;2023-02-01T01:42:12;100592.25;;;11.74;nan
63347;BME280;49472;49.880;8.650;2023-02-01T01:47:21;100598.75;;;11.55;nan
63347;BME280;49472;49.880;8.650;2023-02-01T01:49:47;100591.56;;;11.47;nan
63347;BME280;49472;49.880;8.650;2023-02-01T01:52:12;100592.41;;;11.60;nan
63347;BME280;49472;49.880;8.650;2023-02-01T01:54:41;100573.06;;;11.30;nan
63347;BME280;49472;49.880;8.650;2023-02-01T01:57:12;100568.47;;;11.36;nan
63347;BME280;49472;49.880;8.650;2023-02-01T01:59:41;100562.78;;;11.69;nan
63347;BME280;49472;49.880;8.650;2023-02-01T02:02:09;100560.41;;;12.40;nan
63347;BME280;49472;49.880;8.650;2023-02-01T02:04:35;100570.59;;;11.42;nan
63347;BME280;49472;49.880;8.650;2023-02-01T02:07:04;100563.72;;;11.55;nan
63347;BME280;49472;49.880;8.650;2023-02-01T02:09:30;100563.81;;;11.54;nan
63347;BME280;49472;49.880;8.650;2023-02-01T02:11:55;100560.16;;;11.58;nan
63347;BME280;49472;49.880;8.650;2023-02-01T02:14:22;100555.59;;;11.87;nan
63347;BME280;49472;49.880;8.650;2023-02-01T02:17:06;100564.13;;;12.11;nan
63347;BME280;49472;49.880;8.650;2023-02-01T02:28:20;100531.63;;;12.47;nan
63347;BME280;49472;49.880;8.650;2023-02-01T02:39:31;100545.72;;;11.93;nan
63347;BME280;49472;49.880;8.650;2023-02-01T02:42:11;100542.28;;;12.30;nan
63347;BME280;49472;49.880;8.650;2023-02-01T02:45:25;100544.28;;;12.37;nan
63347;BME280;49472;49.880;8.650;2023-02-01T02:48:25;100548.63;;;12.72;nan
63347;BME280;49472;49.880;8.650;2023-02-01T02:51:01;100553.84;;;12.82;nan
63347;BME280;49472;49.880;8.650;2023-02-01T02:56:41;100574.28;;;12.72;nan
63347;BME280;49472;49.880;8.650;2023-02-01T02:59:26;100579.19;;;12.51;nan
63347;BME280;49472;49.880;8.650;2023-02-01T03:02:12;100580.06;;;12.74;nan
63347;BME280;49472;49.880;8.650;2023-02-01T03:04:57;100577.19;;;12.79;nan
63347;BME280;49472;49.880;8.650;2023-02-01T03:13:13;100579.94;;;11.92;nan
63347;BME280;49472;49.880;8.650;2023-02-01T03:18:25;100569.44;;;12.32;nan
63347;BME280;49472;49.880;8.650;2023-02-01T03:20:53;100567.59;;;12.10;nan
63347;BME280;49472;49.880;8.650;2023-02-01T03:23:23;100563.63;;;12.66;nan
63347;BME280;49472;49.880;8.650;2023-02-01T03:25:52;100560.88;;;12.21;nan
63347;BME280;49472;49.880;8.650;2023-02-01T03:28:20;100543.75;;;12.45;nan
63347;BME280;49472;49.880;8.650;2023-02-01T03:30:49;100550.25;;;12.38;nan
63347;BME280;49472;49.880;8.650;2023-02-01T03:33:19;100551.69;;;12.53;nan
63347;BME280;49472;49.880;8.650;2023-02-01T03:36:09;100555.69;;;12.33;nan
63347;BME280;49472;49.880;8.650;2023-02-01T03:41:59;100552.50;;;11.82;nan
63347;BME280;49472;49.880;8.650;2023-02-01T03:47:10;100545.59;;;11.58;nan
63347;BME280;49472;49.880;8.650;2023-02-01T03:49:43;100541.31;;;11.83;nan
63347;BME280;49472;49.880;8.650;2023-02-01T03:52:14;100537.16;;;11.69;nan
63347;BME280;49472;49.880;8.650;2023-02-01T03:54:40;100528.03;;;11.65;nan
63347;BME280;49472;49.880;8.650;2023-02-01T03:57:11;100529.97;;;10.99;nan
63347;BME280;49472;49.880;8.650;2023-02-01T03:59:39;100528.13;;;11.01;nan
63347;BME280;49472;49.880;8.650;2023-02-01T04:02:06;100528.94;;;10.89;nan
63347;BME280;49472;49.880;8.650;2023-02-01T04:04:31;100529.94;;;10.20;nan
63347;BME280;49472;49.880;8.650;2023-02-01T04:06:58;100538.59;;;10.18;nan
63347;BME280;49472;49.880;8.650;2023-02-01T04:09:23;100529.06;;;10.34;nan
63347;BME280;49472;49.880;8.650;2023-02-01T04:11:48;100531.34;;;10.25;nan
63347;BME280;49472;49.880;8.650;2023-02-01T04:14:13;100536.41;;;10.12;nan
63347;BME280;49472;49.880;8.650;2023-02-01T04:16:39;100526.50;;;10.34;nan
63347;BME280;49472;49.880;8.650;2023-02-01T04:19:04;100532.03;;;10.28;nan
63347;BME280;49472;49.880;8.650;2023-02-01T04:21:29;100529.47;;;10.28;nan
63347;BME280;49472;49.880;8.650;2023-02-01T04:23:55;100521.69;;;10.70;nan
63347;BME280;49472;49.880;8.650;2023-02-01T04:26:20;100520.56;;;10.86;nan
63347;BME280;49472;49.880;8.650;2023-02-01T04:28:46;100527.81;;;10.80;nan
63347;BME280;49472;49.880;8.650;2023-02-01T04:31:13;100520.06;;;11.07;nan
63347;BME280;49472;49.880;8.650;2023-02-01T04:33:39;100519.44;;;10.91;nan
63347;BME280;49472;49.880;8.650;2023-02-01T04:36:05;100521.09;;;10.92;nan
63347;BME280;49472;49.880;8.650;2023-02-01T04:38:30;100526.00;;;10.82;nan
63347;BME280;49472;49.880;8.650;2023-02-01T04:40:57;100537.09;;;10.68;nan
63347;BME280;49472;49.880;8.650;2023-02-01T04:43:22;100536.50;;;11.28;nan
63347;BME280;49472;49.880;8.650;2023-02-01T04:45:48;100534.38;;;10.97;nan
63347;BME280;49472;49.880;8.650;2023-02-01T04:48:15;100528.91;;;10.50;nan
63347;BME280;49472;49.880;8.650;2023-02-01T04:50:40;100535.16;;;10.59;nan
63347;BME280;49472;49.880;8.650;2023-02-01T04:53:06;100545.81;;;10.91;nan
63347;BME280;49472;49.880;8.650;2023-02-01T04:55:31;100527.09;;;10.91;nan
63347;BME280;49472;49.880;8.650;2023-02-01T04:57:56;100536.00;;;10.98;nan
63347;BME280;49472;49.880;8.650;2023-02-01T05:00:22;100528.63;;;10.68;nan
63347;BME280;49472;49.880;8.650;2023-02-01T05:02:47;100533.38;;;10.86;nan
63347;BME280;49472;49.880;8.650;2023-02-01T05:05:12;100542.53;;;10.63;nan
63347;BME280;49472;49.880;8.650;2023-02-01T05:07:38;100530.47;;;11.04;nan
63347;BME280;49472;49.880;8.650;2023-02-01T05:10:03;100530.59;;;10.90;nan
63347;BME280;49472;49.880;8.650;2023-02-01T05:12:29;100537.09;;;10.55;nan
63347;BME280;49472;49.880;8.650;2023-02-01T05:15:12;100537.09;;;10.68;nan
63347;BME280;49472;49.880;8.650;2023-02-01T05:17:38;100543.66;;;10.59;nan
63347;BME280;49472;49.880;8.650;2023-02-01T05:20:06;100542.84;;;10.72;nan
63347;BME280;49472;49.880;8.650;2023-02-01T05:22:31;100532.41;;;10.62;nan
63347;BME280;49472;49.880;8.650;2023-02-01T05:24:56;100526.59;;;10.33;nan
63347;BME280;49472;49.880;8.650;2023-02-01T05:27:22;100524.19;;;10.44;nan
63347;BME280;49472;49.880;8.650;2023-02-01T05:29:47;100523.69;;;10.52;nan
63347;BME280;49472;49.880;8.650;2023-02-01T05:32:12;100517.63;;;10.13;nan
63347;BME280;49472;49.880;8.650;2023-02-01T05:34:38;100513.59;;;10.23;nan
63347;BME280;49472;49.880;8.650;2023-02-01T05:37:03;100509.16;;;10.25;nan
63347;BME280;49472;49.880;8.650;2023-02-01T05:39:28;100511.69;;;10.12;nan
63347;BME280;49472;49.880;8.650;2023-02-01T05:41:53;100519.06;;;10.17;nan
63347;BME280;49472;49.880;8.650;2023-02-01T05:44:19;100515.28;;;10.22;nan
63347;BME280;49472;49.880;8.650;2023-02-01T05:46:44;100514.31;;;10.78;nan
63347;BME280;49472;49.880;8.650;2023-02-01T05:49:09;100516.34;;;10.85;nan
63347;BME280;49472;49.880;8.650;2023-02-01T05:51:35;100521.91;;;10.92;nan
63347;BME280;49472;49.880;8.650;2023-02-01T05:54:00;100520.06;;;11.07;nan
63347;BME280;49472;49.880;8.650;2023-02-01T05:56:25;100515.84;;;10.68;nan
63347;BME280;49472;49.880;8.650;2023-02-01T05:58:51;100509.72;;;10.96;nan
63347;BME280;49472;49.880;8.650;2023-02-01T06:01:16;100523.31;;;11.09;nan
63347;BME280;49472;49.880;8.650;2023-02-01T06:03:41;100521.25;;;10.89;nan
63347;BME280;49472;49.880;8.650;2023-02-01T06:06:06;100512.66;;;10.64;nan
63347;BME280;49472;49.880;8.650;2023-02-01T06:08:32;100522.19;;;10.62;nan
63347;BME280;49472;49.880;8.650;2023-02-01T06:11:03;100525.94;;;10.43;nan
63347;BME280;49472;49.880;8.650;2023-02-01T06:13:29;100526.69;;;10.58;nan
63347;BME280;49472;49.880;8.650;2023-02-01T06:15:54;100531.00;;;10.31;nan
63347;BME280;49472;49.880;8.650;2023-02-01T06:18:20;100529.16;;;10.33;nan
63347;BME280;49472;49.880;8.650;2023-02-01T06:20:52;100525.53;;;10.50;nan
63347;BME280;49472;49.880;8.650;2023-02-01T06:23:17;100528.78;;;10.25;nan
63347;BME280;49472;49.880;8.650;2023-02-01T06:25:43;100521.03;;;10.26;nan
63347;BME280;49472;49.880;8.650;2023-02-01T06:28:08;100526.00;;;10.29;nan
63347;BME280;49472;49.880;8.650;2023-02-01T06:30:33;100528.47;;;10.31;nan
63347;BME280;49472;49.880;8.650;2023-02-01T06:32:59;100527.13;;;10.38;nan
63347;BME280;49472;49.880;8.650;2023-02-01T06:35:24;100539.59;;;10.42;nan
63347;BME280;49472;49.880;8.650;2023-02-01T06:37:51;100540.31;;;10.17;nan
63347;BME280;49472;49.880;8.650;2023-02-01T06:40:16;100526.19;;;10.12;nan
63347;BME280;49472;49.880;8.650;2023-02-01T06:42:42;100539.69;;;10.28;nan
63347;BME280;49472;49.880;8.650;2023-02-01T06:45:08;100543.13;;;10.54;nan
63347;BME280;49472;49.880;8.650;2023-02-01T06:47:33;100550.44;;;10.33;nan
63347;BME280;49472;49.880;8.650;2023-02-01T06:49:59;100543.47;;;10.35;nan
63347;BME280;49472;49.880;8.650;2023-02-01T06:52:24;100542.72;;;10.60;nan
63347;BME280;49472;49.880;8.650;2023-02-01T06:54:49;100536.91;;;10.04;nan
63347;BME280;49472;49.880;8.650;2023-02-01T06:57:15;100522.38;;;10.05;nan
63347;BME280;49472;49.880;8.650;2023-02-01T06:59:40;100519.91;;;9.90;nan
63347;BME280;49472;49.880;8.650;2023-02-01T07:02:05;100511.41;;;10.17;nan
63347;BME280;49472;49.880;8.650;2023-02-01T07:04:31;100522.03;;;10.11;nan
63347;BME280;49472;49.880;8.650;2023-02-01T07:06:56;100522.28;;;10.86;nan
63347;BME280;49472;49.880;8.650;2023-02-01T07:09:21;100527.22;;;11.27;nan
63347;BME280;49472;49.880;8.650;2023-02-01T07:11:47;100540.38;;;10.70;nan
63347;BME280;49472;49.880;8.650;2023-02-01T07:14:12;100539.88;;;10.65;nan
63347;BME280;49472;49.880;8.650;2023-02-01T07:16:38;100539.78;;;10.67;nan
63347;BME280;49472;49.880;8.650;2023-02-01T07:19:03;100538.59;;;10.18;nan
63347;BME280;49472;49.880;8.650;2023-02-01T07:21:29;100536.22;;;10.15;nan
63347;BME280;49472;49.880;8.650;2023-02-01T07:23:55;100534.19;;;10.20;nan
63347;BME280;49472;49.880;8.650;2023-02-01T07:26:20;100532.19;;;9.98;nan
63347;BME280;49472;49.880;8.650;2023-02-01T07:28:46;100526.13;;;10.13;nan
63347;BME280;49472;49.880;8.650;2023-02-01T07:31:14;100539.13;;;10.50;nan
63347;BME280;49472;49.880;8.650;2023-02-01T07:33:44;100540.84;;;10.37;nan
63347;BME280;49472;49.880;8.650;2023-02-01T07:36:12;100534.06;;;10.89;nan
63347;BME280;49472;49.880;8.650;2023-02-01T07:38:37;100546.75;;;10.37;nan
63347;BME280;49472;49.880;8.650;2023-02-01T07:41:04;100543.78;;;10.31;nan
63347;BME280;49472;49.880;8.650;2023-02-01T07:43:31;100542.88;;;10.17;nan
63347;BME280;49472;49.880;8.650;2023-02-01T07:45:56;100553.78;;;10.07;nan
63347;BME280;49472;49.880;8.650;2023-02-01T07:48:23;100554.72;;;9.91;nan
63347;BME280;49472;49.880;8.650;2023-02-01T07:53:24;100565.47;;;9.96;nan
63347;BME280;49472;49.880;8.650;2023-02-01T07:55:50;100574.00;;;10.10;nan
63347;BME280;49472;49.880;8.650;2023-02-01T07:58:15;100572.97;;;10.41;nan
63347;BME280;49472;49.880;8.650;2023-02-01T08:00:40;100579.66;;;10.15;nan
63347;BME280;49472;49.880;8.650;2023-02-01T08:03:24;100571.75;;;10.47;nan
63347;BME280;49472;49.880;8.650;2023-02-01T08:05:54;100585.25;;;10.07;nan
63347;BME280;49472;49.880;8.650;2023-02-01T08:08:20;100586.03;;;10.22;nan
63347;BME280;49472;49.880;8.650;2023-02-01T08:10:45;100585.69;;;10.28;nan
63347;BME280;49472;49.880;8.650;2023-02-01T08:13:11;100590.81;;;10.14;nan
63347;BME280;49472;49.880;8.650;2023-02-01T08:15:36;100596.72;;;10.14;nan
63347;BME280;49472;49.880;8.650;2023-02-01T08:18:01;100594.22;;;10.27;nan
63347;BME280;49472;49.880;8.650;2023-02-01T08:20:27;100597.47;;;10.31;nan
63347;BME280;49472;49.880;8.650;2023-02-01T08:22:53;100600.81;;;10.17;nan
63347;BME280;49472;49.880;8.650;2023-02-01T08:25:19;100601.72;;;10.30;nan
63347;BME280;49472;49.880;8.650;2023-02-01T08:27:45;100607.16;;;10.65;nan
63347;BME280;49472;49.880;8.650;2023-02-01T08:30:10;100608.53;;;10.71;nan
63347;BME280;49472;49.880;8.650;2023-02-01T08:32:36;100618.53;;;10.34;nan
63347;BME280;49472;49.880;8.650;2023-02-01T08:35:02;100609.38;;;10.84;nan
63347;BME280;49472;49.880;8.650;2023-02-01T08:37:28;100609.06;;;10.49;nan
63347;BME280;49472;49.880;8.650;2023-02-01T08:39:54;100599.41;;;10.67;nan
63347;BME280;49472;49.880;8.650;2023-02-01T08:42:19;100611.06;;;10.58;nan
63347;BME280;49472;49.880;8.650;2023-02-01T08:45:04;100607.69;;;10.71;nan
63347;BME280;49472;49.880;8.650;2023-02-01T08:47:30;100603.72;;;10.67;nan
63347;BME280;49472;49.880;8.650;2023-02-01T08:49:55;100610.56;;;10.66;nan
63347;BME280;49472;49.880;8.650;2023-02-01T08:52:21;100618.75;;;10.71;nan
63347;BME280;49472;49.880;8.650;2023-02-01T08:54:47;100624.69;;;10.45;nan
63347;BME280;49472;49.880;8.650;2023-02-01T08:57:12;100628.56;;;10.64;nan
63347;BME280;49472;49.880;8.650;2023-02-01T08:59:38;100621.81;;;10.36;nan
63347;BME280;49472;49.880;8.650;2023-02-01T09:02:03;100618.25;;;10.66;nan
63347;BME280;49472;49.880;8.650;2023-02-01T09:04:29;100619.28;;;10.76;nan
63347;BME280;49472;49.880;8.650;2023-02-01T09:06:54;100619.22;;;11.29;nan
63347;BME280;49472;49.880;8.650;2023-02-01T09:09:21;100621.75;;;10.91;nan
63347;BME280;49472;49.880;8.650;2023-02-01T09:11:47;100619.72;;;10.96;nan
63347;BME280;49472;49.880;8.650;2023-02-01T09:14:12;100612.06;;;11.34;nan
63347;BME280;49472;49.880;8.650;2023-02-01T09:16:37;100603.25;;;11.51;nan
63347;BME280;49472;49.880;8.650;2023-02-01T09:19:02;100620.56;;;11.35;nan
63347;BME280;49472;49.880;8.650;2023-02-01T09:21:28;100617.28;;;11.71;nan
63347;BME280;49472;49.880;8.650;2023-02-01T09:23:54;100614.81;;;11.69;nan
63347;BME280;49472;49.880;8.650;2023-02-01T09:26:19;100624.28;;;12.06;nan
63347;BME280;49472;49.880;8.650;2023-02-01T09:28:44;100630.41;;;11.28;nan
63347;BME280;49472;49.880;8.650;2023-02-01T09:31:10;100648.59;;;10.98;nan
63347;BME280;49472;49.880;8.650;2023-02-01T09:33:35;100644.13;;;12.28;nan
63347;BME280;49472;49.880;8.650;2023-02-01T09:36:03;100651.69;;;11.92;nan
63347;BME280;49472;49.880;8.650;2023-02-01T09:38:30;100654.56;;;11.88;nan
63347;BME280;49472;49.880;8.650;2023-02-01T09:40:57;100666.25;;;11.92;nan
63347;BME280;49472;49.880;8.650;2023-02-01T09:46:20;100676.06;;;11.47;nan
63347;BME280;49472;49.880;8.650;2023-02-01T09:48:46;100680.00;;;11.40;nan
63347;BME280;49472;49.880;8.650;2023-02-01T09:51:16;100681.19;;;11.47;nan
63347;BME280;49472;49.880;8.650;2023-02-01T09:53:48;100680.59;;;11.56;nan
63347;BME280;49472;49.880;8.650;2023-02-01T09:56:24;100675.50;;;11.03;nan
63347;BME280;49472;49.880;8.650;2023-02-01T09:59:01;100687.47;;;11.43;nan
63347;BME280;49472;49.880;8.650;2023-02-01T10:01:29;100699.22;;;11.20;nan
63347;BME280;49472;49.880;8.650;2023-02-01T10:04:04;100686.66;;;11.55;nan
63347;BME280;49472;49.880;8.650;2023-02-01T10:06:40;100689.59;;;11.74;nan
63347;BME280;49472;49.880;8.650;2023-02-01T10:22:45;100673.41;;;12.00;nan
63347;BME280;49472;49.880;8.650;2023-02-01T10:28:03;100676.28;;;11.82;nan
63347;BME280;49472;49.880;8.650;2023-02-01T10:30:39;100678.84;;;11.44;nan
63347;BME280;49472;49.880;8.650;2023-02-01T10:33:25;100668.09;;;11.51;nan
63347;BME280;49472;49.880;8.650;2023-02-01T10:35:58;100657.63;;;11.55;nan
63347;BME280;49472;49.880;8.650;2023-02-01T10:38:29;100652.63;;;11.91;nan
63347;BME280;49472;49.880;8.650;2023-02-01T10:40:58;100638.69;;;11.32;nan
63347;BME280;49472;49.880;8.650;2023-02-01T10:43:26;100647.06;;;11.08;nan
63347;BME280;49472;49.880;8.650;2023-02-01T10:45:52;100641.88;;;11.22;nan
63347;BME280;49472;49.880;8.650;2023-02-01T10:48:18;100646.38;;;11.32;nan
63347;BME280;49472;49.880;8.650;2023-02-01T10:50:53;100654.44;;;11.00;nan
63347;BME280;49472;49.880;8.650;2023-02-01T10:53:24;100642.16;;;11.05;nan
63347;BME280;49472;49.880;8.650;2023-02-01T10:55:52;100624.25;;;11.30;nan
63347;BME280;49472;49.880;8.650;2023-02-01T10:58:45;100617.69;;;11.14;nan
63347;BME280;49472;49.880;8.650;2023-02-01T11:01:37;100607.84;;;11.71;nan
63347;BME280;49472;49.880;8.650;2023-02-01T11:04:05;100609.19;;;11.00;nan
63347;BME280;49472;49.880;8.650;2023-02-01T11:06:39;100589.97;;;11.33;nan
63347;BME280;49472;49.880;8.650;2023-02-01T11:11:30;100589.03;;;11.47;nan
63347;BME280;49472;49.880;8.650;2023-02-01T11:13:58;100590.47;;;11.38;nan
63347;BME280;49472;49.880;8.650;2023-02-01T11:16:34;100592.41;;;11.09;nan
63347;BME280;49472;49.880;8.650;2023-02-01T11:18:59;100590.34;;;11.14;nan
63347;BME280;49472;49.880;8.650;2023-02-01T11:21:25;100592.81;;;11.41;nan
63347;BME280;49472;49.880;8.650;2023-02-01T11:23:51;100598.69;;;11.80;nan
63347;BME280;49472;49.880;8.650;2023-02-01T11:29:10;100588.66;;;11.77;nan
63347;BME280;49472;49.880;8.650;2023-02-01T11:31:37;100584.56;;;11.87;nan
63347;BME280;49472;49.880;8.650;2023-02-01T11:34:13;100595.81;;;11.85;nan
63347;BME280;49472;49.880;8.650;2023-02-01T11:36:39;100592.34;;;11.99;nan
63347;BME280;49472;49.880;8.650;2023-02-01T11:44:30;100605.09;;;11.62;nan
63347;BME280;49472;49.880;8.650;2023-02-01T11:47:17;100590.94;;;11.69;nan
63347;BME280;49472;49.880;8.650;2023-02-01T11:49:43;100587.31;;;11.97;nan
63347;BME280;49472;49.880;8.650;2023-02-01T11:55:03;100593.53;;;11.56;nan
63347;BME280;49472;49.880;8.650;2023-02-01T12:29:43;100560.06;;;11.96;nan
63347;BME280;49472;49.880;8.650;2023-02-01T12:32:25;100547.63;;;11.66;nan
63347;BME280;49472;49.880;8.650;2023-02-01T12:40:38;100548.03;;;11.60;nan
63347;BME280;49472;49.880;8.650;2023-02-01T12:43:20;100549.38;;;12.02;nan
63347;BME280;49472;49.880;8.650;2023-02-01T12:46:04;100541.84;;;11.88;nan
63347;BME280;49472;49.880;8.650;2023-02-01T12:48:36;100537.44;;;12.96;nan
63347;BME280;49472;49.880;8.650;2023-02-01T12:54:04;100516.69;;;11.93;nan
63347;BME280;49472;49.880;8.650;2023-02-01T12:56:41;100514.19;;;12.28;nan
63347;BME280;49472;49.880;8.650;2023-02-01T12:59:19;100504.19;;;12.01;nan
63347;BME280;49472;49.880;8.650;2023-02-01T13:01:51;100507.44;;;12.03;nan
63347;BME280;49472;49.880;8.650;2023-02-01T13:04:37;100506.78;;;12.12;nan
63347;BME280;49472;49.880;8.650;2023-02-01T13:07:13;100511.09;;;12.12;nan
63347;BME280;49472;49.880;8.650;2023-02-01T13:12:16;100499.50;;;12.77;nan
63347;BME280;49472;49.880;8.650;2023-02-01T13:17:27;100500.19;;;12.68;nan
63347;BME280;49472;49.880;8.650;2023-02-01T13:25:11;100492.78;;;12.41;nan
63347;BME280;49472;49.880;8.650;2023-02-01T13:27:37;100506.22;;;12.20;nan
63347;BME280;49472;49.880;8.650;2023-02-01T13:32:45;100504.38;;;12.22;nan
63347;BME280;49472;49.880;8.650;2023-02-01T13:35:34;100506.78;;;12.36;nan
63347;BME280;49472;49.880;8.650;2023-02-01T13:38:20;100499.53;;;12.88;nan
63347;BME280;49472;49.880;8.650;2023-02-01T13:43:39;100512.22;;;12.67;nan
63347;BME280;49472;49.880;8.650;2023-02-01T13:46:08;100506.88;;;12.35;nan
63347;BME280;49472;49.880;8.650;2023-02-01T13:48:45;100504.00;;;12.51;nan
63347;BME280;49472;49.880;8.650;2023-02-01T13:51:12;100499.34;;;12.56;nan
63347;BME280;49472;49.880;8.650;2023-02-01T13:53:45;100492.03;;;12.63;nan
63347;BME280;49472;49.880;8.650;2023-02-01T13:56:15;100496.81;;;12.78;nan
63347;BME280;49472;49.880;8.650;2023-02-01T13:58:43;100498.34;;;12.70;nan
63347;BME280;49472;49.880;8.650;2023-02-01T14:19:09;100504.97;;;12.61;nan
63347;BME280;49472;49.880;8.650;2023-02-01T14:24:20;100503.84;;;12.88;nan
63347;BME280;49472;49.880;8.650;2023-02-01T14:26:49;100508.59;;;12.70;nan
63347;BME280;49472;49.880;8.650;2023-02-01T14:37:01;100478.28;;;12.28;nan
63347;BME280;49472;49.880;8.650;2023-02-01T14:42:21;100477.22;;;12.20;nan
63347;BME280;49472;49.880;8.650;2023-02-01T14:44:50;100481.06;;;11.77;nan
63347;BME280;49472;49.880;8.650;2023-02-01T14:49:54;100476.34;;;12.43;nan
63347;BME280;49472;49.880;8.650;2023-02-01T14:52:29;100484.28;;;12.40;nan
63347;BME280;49472;49.880;8.650;2023-02-01T14:54:59;100482.84;;;12.25;nan
63347;BME280;49472;49.880;8.650;2023-02-01T14:57:27;100484.25;;;12.29;nan
63347;BME280;49472;49.880;8.650;2023-02-01T14:59:59;100481.53;;;12.54;nan
63347;BME280;49472;49.880;8.650;2023-02-01T15:02:26;100474.34;;;11.76;nan
63347;BME280;49472;49.880;8.650;2023-02-01T15:04:55;100464.91;;;12.01;nan
63347;BME280;49472;49.880;8.650;2023-02-01T15:07:22;100477.25;;;11.83;nan
63347;BME280;49472;49.880;8.650;2023-02-01T15:09:49;100473.28;;;11.91;nan
63347;BME280;49472;49.880;8.650;2023-02-01T15:12:18;100462.72;;;12.31;nan
63347;BME280;49472;49.880;8.650;2023-02-01T15:15:15;100474.41;;;12.11;nan
63347;BME280;49472;49.880;8.650;2023-02-01T15:17:49;100475.38;;;12.22;nan
63347;BME280;49472;49.880;8.650;2023-02-01T15:20:21;100476.41;;;12.19;nan
63347;BME280;49472;49.880;8.650;2023-02-01T15:22:55;100482.97;;;11.99;nan
63347;BME280;49472;49.880;8.650;2023-02-01T15:25:32;100482.25;;;11.97;nan
63347;BME280;49472;49.880;8.650;2023-02-01T15:28:00;100481.53;;;12.19;nan
63347;BME280;49472;49.880;8.650;2023-02-01T15:30:28;100485.22;;;12.39;nan
63347;BME280;49472;49.880;8.650;2023-02-01T15:35:44;100491.56;;;12.57;nan
63347;BME280;49472;49.880;8.650;2023-02-01T15:43:31;100486.84;;;12.40;nan
63347;BME280;49472;49.880;8.650;2023-02-01T15:46:03;100489.63;;;11.65;nan
63347;BME280;49472;49.880;8.650;2023-02-01T15:48:38;100478.59;;;12.48;nan
63347;BME280;49472;49.880;8.650;2023-02-01T15:51:04;100484.34;;;11.92;nan
63347;BME280;49472;49.880;8.650;2023-02-01T15:53:30;100480.66;;;12.07;nan
63347;BME280;49472;49.880;8.650;2023-02-01T15:56:01;100487.13;;;11.76;nan
63347;BME280;49472;49.880;8.650;2023-02-01T15:58:29;100481.28;;;11.87;nan
63347;BME280;49472;49.880;8.650;2023-02-01T16:00:59;100473.91;;;12.06;nan
63347;BME280;49472;49.880;8.650;2023-02-01T16:03:36;100478.00;;;12.09;nan
63347;BME280;49472;49.880;8.650;2023-02-01T16:06:08;100487.53;;;12.07;nan
63347;BME280;49472;49.880;8.650;2023-02-01T16:08:34;100485.16;;;11.92;nan
63347;BME280;49472;49.880;8.650;2023-02-01T16:13:33;100488.09;;;11.62;nan
63347;BME280;49472;49.880;8.650;2023-02-01T16:15:58;100488.88;;;11.88;nan